sensor_id;sensor_type;location;lat;lon;timestamp;pressure;altitude;pressure_sealevel;temperature;humidity
3968;BME280;9221;42.646;23.380;2023-04-20T00:01:30;94146.06;;;12.22;70.77
3968;BME280;9221;42.646;23.380;2023-04-20T00:03:55;94111.25;;;12.10;70.96
3968;BME280;9221;42.646;23.380;2023-04-20T00:06:21;94154.13;;;12.37;70.89
3968;BME280;9221;42.646;23.380;2023-04-20T00:08:46;94155.78;;;12.30;69.82
3968;BME280;9221;42.646;23.380;2023-04-20T00:11:12;94045.03;;;11.56;70.17
3968;BME280;9221;42.646;23.380;2023-04-20T00:13:37;94137.34;;;12.13;69.66
3968;BME280;9221;42.646;23.380;2023-04-20T00:16:03;94147.28;;;12.11;69.79
3968;BME280;9221;42.646;23.380;2023-04-20T00:18:28;94069.28;;;11.59;69.26
3968;BME280;9221;42.646;23.380;2023-04-20T00:20:53;94148.91;;;12.04;69.44
3968;BME280;9221;42.646;23.380;2023-04-20T00:23:19;94150.94;;;12.02;69.54
3968;BME280;9221;42.646;23.380;2023-04-20T00:25:44;94150.56;;;12.05;69.99
3968;BME280;9221;42.646;23.380;2023-04-20T00:28:10;94146.13;;;12.06;69.88
3968;BME280;9221;42.646;23.380;2023-04-20T00:30:35;94124.66;;;11.92;69.76
3968;BME280;9221;42.646;23.380;2023-04-20T00:33:01;94147.63;;;12.00;69.75
3968;BME280;9221;42.646;23.380;2023-04-20T00:35:26;94132.09;;;11.97;70.62
3968;BME280;9221;42.646;23.380;2023-04-20T00:37:52;94141.16;;;12.02;70.02
3968;BME280;9221;42.646;23.380;2023-04-20T00:40:17;94167.44;;;11.96;70.14
3968;BME280;9221;42.646;23.380;2023-04-20T00:42:43;94178.19;;;11.86;70.56
3968;BME280;9221;42.646;23.380;2023-04-20T00:45:08;94137.38;;;11.97;70.76
3968;BME280;9221;42.646;23.380;2023-04-20T00:47:34;94136.25;;;11.83;71.53
3968;BME280;9221;42.646;23.380;2023-04-20T00:50:00;94008.19;;;11.06;71.55
3968;BME280;9221;42.646;23.380;2023-04-20T00:52:25;94055.97;;;11.36;71.91
3968;BME280;9221;42.646;23.380;2023-04-20T00:54:51;94073.44;;;11.45;71.79
3968;BME280;9221;42.646;23.380;2023-04-20T00:57:18;94154.41;;;11.78;71.86
3968;BME280;9221;42.646;23.380;2023-04-20T00:59:49;94151.63;;;11.71;72.37
3968;BME280;9221;42.646;23.380;2023-04-20T01:02:15;94115.50;;;11.63;72.59
3968;BME280;9221;42.646;23.380;2023-04-20T01:04:43;94130.19;;;11.66;72.31
3968;BME280;9221;42.646;23.380;2023-04-20T01:07:08;94084.72;;;11.23;72.73
3968;BME280;9221;42.646;23.380;2023-04-20T01:09:36;94065.25;;;11.07;72.98
3968;BME280;9221;42.646;23.380;2023-04-20T01:12:03;94177.41;;;11.36;73.20
3968;BME280;9221;42.646;23.380;2023-04-20T01:14:28;94150.69;;;11.39;73.58
3968;BME280;9221;42.646;23.380;2023-04-20T01:16:54;94078.75;;;11.04;73.75
3968;BME280;9221;42.646;23.380;2023-04-20T01:19:19;94101.38;;;10.98;74.13
3968;BME280;9221;42.646;23.380;2023-04-20T01:21:45;94127.28;;;11.28;74.25
3968;BME280;9221;42.646;23.380;2023-04-20T01:24:12;94074.50;;;10.95;74.53
3968;BME280;9221;42.646;23.380;2023-04-20T01:26:37;94119.66;;;11.25;75.14
3968;BME280;9221;42.646;23.380;2023-04-20T01:29:03;94121.31;;;11.17;75.15
3968;BME280;9221;42.646;23.380;2023-04-20T01:31:29;94125.63;;;11.18;75.51
3968;BME280;9221;42.646;23.380;2023-04-20T01:33:54;94034.28;;;10.60;75.36
3968;BME280;9221;42.646;23.380;2023-04-20T01:36:20;94100.88;;;11.03;75.36
3968;BME280;9221;42.646;23.380;2023-04-20T01:38:45;94057.34;;;10.74;75.49
3968;BME280;9221;42.646;23.380;2023-04-20T01:41:11;94047.47;;;10.68;75.33
3968;BME280;9221;42.646;23.380;2023-04-20T01:43:37;94112.09;;;11.05;75.54
3968;BME280;9221;42.646;23.380;2023-04-20T01:46:03;94090.81;;;10.14;75.82
3968;BME280;9221;42.646;23.380;2023-04-20T01:48:29;94067.88;;;10.74;75.77
3968;BME280;9221;42.646;23.380;2023-04-20T01:50:55;94106.47;;;11.00;75.86
3968;BME280;9221;42.646;23.380;2023-04-20T01:53:20;94057.50;;;10.81;75.96
3968;BME280;9221;42.646;23.380;2023-04-20T01:55:46;94050.75;;;10.70;75.65
3968;BME280;9221;42.646;23.380;2023-04-20T01:58:12;94143.41;;;11.08;75.51
3968;BME280;9221;42.646;23.380;2023-04-20T02:00:38;94112.94;;;11.22;75.65
3968;BME280;9221;42.646;23.380;2023-04-20T02:03:03;94144.91;;;11.19;75.30
3968;BME280;9221;42.646;23.380;2023-04-20T02:05:28;94128.09;;;11.12;75.19
3968;BME280;9221;42.646;23.380;2023-04-20T02:07:54;94114.38;;;11.25;75.19
3968;BME280;9221;42.646;23.380;2023-04-20T02:10:19;94090.00;;;11.06;75.12
3968;BME280;9221;42.646;23.380;2023-04-20T02:12:46;94115.06;;;11.02;75.46
3968;BME280;9221;42.646;23.380;2023-04-20T02:15:12;93983.50;;;10.41;74.96
3968;BME280;9221;42.646;23.380;2023-04-20T02:17:37;94107.13;;;11.18;75.27
3968;BME280;9221;42.646;23.380;2023-04-20T02:20:03;94054.06;;;10.72;74.84
3968;BME280;9221;42.646;23.380;2023-04-20T02:22:33;94145.25;;;11.16;74.94
3968;BME280;9221;42.646;23.380;2023-04-20T02:25:00;94103.19;;;11.23;75.10
3968;BME280;9221;42.646;23.380;2023-04-20T02:27:29;94098.25;;;11.20;74.84
3968;BME280;9221;42.646;23.380;2023-04-20T02:29:55;94091.31;;;11.10;74.81
3968;BME280;9221;42.646;23.380;2023-04-20T02:32:20;94105.66;;;11.16;75.03
3968;BME280;9221;42.646;23.380;2023-04-20T02:34:46;94140.59;;;11.10;75.41
3968;BME280;9221;42.646;23.380;2023-04-20T02:37:11;93973.28;;;10.38;75.16
3968;BME280;9221;42.646;23.380;2023-04-20T02:39:37;94111.56;;;11.18;75.32
3968;BME280;9221;42.646;23.380;2023-04-20T02:42:04;94035.94;;;10.61;76.08
3968;BME280;9221;42.646;23.380;2023-04-20T02:44:29;94118.34;;;10.88;76.17
3968;BME280;9221;42.646;23.380;2023-04-20T02:46:54;94096.09;;;10.82;75.90
3968;BME280;9221;42.646;23.380;2023-04-20T02:49:20;94047.44;;;10.60;76.46
3968;BME280;9221;42.646;23.380;2023-04-20T02:51:45;94066.25;;;10.65;76.42
3968;BME280;9221;42.646;23.380;2023-04-20T02:54:11;94123.63;;;11.04;76.46
3968;BME280;9221;42.646;23.380;2023-04-20T02:56:36;93938.81;;;9.90;76.16
3968;BME280;9221;42.646;23.380;2023-04-20T02:59:03;94103.84;;;11.00;76.16
3968;BME280;9221;42.646;23.380;2023-04-20T03:01:28;94044.31;;;10.64;76.09
3968;BME280;9221;42.646;23.380;2023-04-20T03:03:54;94050.09;;;10.76;75.90
3968;BME280;9221;42.646;23.380;2023-04-20T03:06:19;94049.09;;;10.61;75.54
3968;BME280;9221;42.646;23.380;2023-04-20T03:08:45;94115.06;;;11.10;75.66
3968;BME280;9221;42.646;23.380;2023-04-20T03:11:11;94155.28;;;11.12;75.75
3968;BME280;9221;42.646;23.380;2023-04-20T03:13:36;94048.78;;;10.72;75.05
3968;BME280;9221;42.646;23.380;2023-04-20T03:16:02;94050.44;;;10.73;75.14
3968;BME280;9221;42.646;23.380;2023-04-20T03:18:28;94113.06;;;11.12;75.17
3968;BME280;9221;42.646;23.380;2023-04-20T03:20:53;94027.34;;;10.67;75.15
3968;BME280;9221;42.646;23.380;2023-04-20T03:23:18;94084.72;;;10.98;74.98
3968;BME280;9221;42.646;23.380;2023-04-20T03:25:44;94120.66;;;11.24;74.41
3968;BME280;9221;42.646;23.380;2023-04-20T03:28:10;94079.09;;;11.01;74.53
3968;BME280;9221;42.646;23.380;2023-04-20T03:30:35;94033.94;;;10.71;74.45
3968;BME280;9221;42.646;23.380;2023-04-20T03:33:01;94119.34;;;11.20;74.79
3968;BME280;9221;42.646;23.380;2023-04-20T03:35:26;94119.34;;;11.20;74.84
3968;BME280;9221;42.646;23.380;2023-04-20T03:37:52;94054.56;;;10.92;74.55
3968;BME280;9221;42.646;23.380;2023-04-20T03:40:17;94053.53;;;10.93;74.23
3968;BME280;9221;42.646;23.380;2023-04-20T03:42:42;94138.47;;;11.30;74.14
3968;BME280;9221;42.646;23.380;2023-04-20T03:45:08;94115.69;;;11.37;74.05
3968;BME280;9221;42.646;23.380;2023-04-20T03:47:34;94129.06;;;11.35;74.02
3968;BME280;9221;42.646;23.380;2023-04-20T03:49:59;94118.69;;;11.26;74.11
3968;BME280;9221;42.646;23.380;2023-04-20T03:52:24;94158.44;;;11.24;74.13
3968;BME280;9221;42.646;23.380;2023-04-20T03:54:50;94050.75;;;10.87;74.37
3968;BME280;9221;42.646;23.380;2023-04-20T03:57:16;94124.78;;;11.34;73.98
3968;BME280;9221;42.646;23.380;2023-04-20T03:59:41;94158.59;;;11.31;73.59
3968;BME280;9221;42.646;23.380;2023-04-20T04:02:06;94064.59;;;11.05;73.83
3968;BME280;9221;42.646;23.380;2023-04-20T04:04:32;94109.44;;;11.13;73.72
3968;BME280;9221;42.646;23.380;2023-04-20T04:06:57;94150.00;;;11.45;73.69
3968;BME280;9221;42.646;23.380;2023-04-20T04:09:23;94131.03;;;11.50;73.54
3968;BME280;9221;42.646;23.380;2023-04-20T04:11:50;94057.34;;;11.07;73.53
3968;BME280;9221;42.646;23.380;2023-04-20T04:14:16;94162.72;;;11.50;73.60
3968;BME280;9221;42.646;23.380;2023-04-20T04:16:41;94142.41;;;11.50;73.35
3968;BME280;9221;42.646;23.380;2023-04-20T04:19:07;94137.81;;;11.44;73.24
3968;BME280;9221;42.646;23.380;2023-04-20T04:21:33;94107.47;;;11.32;73.23
3968;BME280;9221;42.646;23.380;2023-04-20T04:23:58;94145.91;;;11.51;73.80
3968;BME280;9221;42.646;23.380;2023-04-20T04:26:24;94131.50;;;11.54;73.53
3968;BME280;9221;42.646;23.380;2023-04-20T04:28:50;94120.94;;;11.54;73.38
3968;BME280;9221;42.646;23.380;2023-04-20T04:31:16;94164.19;;;11.69;73.15
3968;BME280;9221;42.646;23.380;2023-04-20T04:33:44;94143.38;;;11.74;72.33
3968;BME280;9221;42.646;23.380;2023-04-20T04:36:11;94118.97;;;11.56;72.17
3968;BME280;9221;42.646;23.380;2023-04-20T04:38:36;94073.97;;;11.24;71.97
3968;BME280;9221;42.646;23.380;2023-04-20T04:41:02;94169.47;;;11.61;72.20
3968;BME280;9221;42.646;23.380;2023-04-20T04:43:28;94152.63;;;11.54;72.48
3968;BME280;9221;42.646;23.380;2023-04-20T04:45:53;94140.75;;;11.49;72.68
3968;BME280;9221;42.646;23.380;2023-04-20T04:48:19;94074.50;;;11.20;72.51
3968;BME280;9221;42.646;23.380;2023-04-20T04:50:44;94161.56;;;11.52;72.60
3968;BME280;9221;42.646;23.380;2023-04-20T04:53:10;94143.72;;;11.63;72.87
3968;BME280;9221;42.646;23.380;2023-04-20T04:55:36;94144.03;;;11.68;72.85
3968;BME280;9221;42.646;23.380;2023-04-20T04:58:01;94137.16;;;11.34;72.63
3968;BME280;9221;42.646;23.380;2023-04-20T05:00:28;94135.78;;;11.63;72.53
3968;BME280;9221;42.646;23.380;2023-04-20T05:02:53;94198.00;;;11.74;72.17
3968;BME280;9221;42.646;23.380;2023-04-20T05:05:20;94189.63;;;11.62;72.09
3968;BME280;9221;42.646;23.380;2023-04-20T05:07:46;94144.72;;;11.62;71.76
3968;BME280;9221;42.646;23.380;2023-04-20T05:10:11;94154.97;;;11.48;72.56
3968;BME280;9221;42.646;23.380;2023-04-20T05:12:37;94092.28;;;11.17;72.57
3968;BME280;9221;42.646;23.380;2023-04-20T05:15:04;94132.84;;;11.25;72.56
3968;BME280;9221;42.646;23.380;2023-04-20T05:17:29;94143.91;;;11.45;72.55
3968;BME280;9221;42.646;23.380;2023-04-20T05:19:55;94156.28;;;11.52;72.99
3968;BME280;9221;42.646;23.380;2023-04-20T05:22:20;94090.81;;;11.07;72.90
3968;BME280;9221;42.646;23.380;2023-04-20T05:24:46;94116.38;;;11.31;72.45
3968;BME280;9221;42.646;23.380;2023-04-20T05:27:11;94177.41;;;11.52;72.63
3968;BME280;9221;42.646;23.380;2023-04-20T05:29:37;94157.41;;;11.66;72.56
3968;BME280;9221;42.646;23.380;2023-04-20T05:32:02;94185.66;;;11.74;72.83
3968;BME280;9221;42.646;23.380;2023-04-20T05:34:28;94102.47;;;11.45;72.88
3968;BME280;9221;42.646;23.380;2023-04-20T05:36:53;94092.25;;;11.42;72.56
3968;BME280;9221;42.646;23.380;2023-04-20T05:39:19;94093.91;;;11.51;72.33
3968;BME280;9221;42.646;23.380;2023-04-20T05:41:46;94163.16;;;12.03;71.52
3968;BME280;9221;42.646;23.380;2023-04-20T05:44:11;94149.28;;;12.01;71.53
3968;BME280;9221;42.646;23.380;2023-04-20T05:46:37;94144.50;;;11.96;71.29
3968;BME280;9221;42.646;23.380;2023-04-20T05:49:02;94093.53;;;11.63;71.09
3968;BME280;9221;42.646;23.380;2023-04-20T05:51:28;94156.22;;;12.02;71.34
3968;BME280;9221;42.646;23.380;2023-04-20T05:53:57;94135.31;;;11.67;71.23
3968;BME280;9221;42.646;23.380;2023-04-20T05:56:22;94091.13;;;11.28;71.69
3968;BME280;9221;42.646;23.380;2023-04-20T05:58:48;94103.78;;;11.49;71.98
3968;BME280;9221;42.646;23.380;2023-04-20T06:01:14;94160.00;;;11.91;71.89
3968;BME280;9221;42.646;23.380;2023-04-20T06:03:39;94155.72;;;11.82;71.68
3968;BME280;9221;42.646;23.380;2023-04-20T06:06:05;94166.13;;;11.75;72.34
3968;BME280;9221;42.646;23.380;2023-04-20T06:08:31;94181.69;;;11.62;72.63
3968;BME280;9221;42.646;23.380;2023-04-20T06:10:56;94124.78;;;11.43;73.27
3968;BME280;9221;42.646;23.380;2023-04-20T06:13:22;94105.81;;;11.31;74.40
3968;BME280;9221;42.646;23.380;2023-04-20T06:15:48;94097.22;;;11.29;74.84
3968;BME280;9221;42.646;23.380;2023-04-20T06:18:13;94092.63;;;11.23;74.91
3968;BME280;9221;42.646;23.380;2023-04-20T06:20:39;94138.31;;;11.31;74.34
3968;BME280;9221;42.646;23.380;2023-04-20T06:23:04;94100.53;;;11.31;74.62
3968;BME280;9221;42.646;23.380;2023-04-20T06:28:13;94101.50;;;11.38;74.74
3968;BME280;9221;42.646;23.380;2023-04-20T06:30:39;94082.69;;;11.41;74.72
3968;BME280;9221;42.646;23.380;2023-04-20T06:33:04;94104.41;;;11.68;74.62
3968;BME280;9221;42.646;23.380;2023-04-20T06:35:30;94082.66;;;11.66;74.54
3968;BME280;9221;42.646;23.380;2023-04-20T06:37:55;94175.00;;;12.15;73.92
3968;BME280;9221;42.646;23.380;2023-04-20T06:40:22;94208.06;;;12.11;73.07
3968;BME280;9221;42.646;23.380;2023-04-20T06:42:50;94104.75;;;11.65;73.25
3968;BME280;9221;42.646;23.380;2023-04-20T06:45:15;94104.28;;;11.61;73.39
3968;BME280;9221;42.646;23.380;2023-04-20T06:47:42;94167.44;;;11.96;73.17
3968;BME280;9221;42.646;23.380;2023-04-20T06:50:08;94189.38;;;12.21;73.15
3968;BME280;9221;42.646;23.380;2023-04-20T06:52:37;94118.94;;;11.72;72.91
3968;BME280;9221;42.646;23.380;2023-04-20T06:55:03;94228.22;;;12.04;73.27
3968;BME280;9221;42.646;23.380;2023-04-20T06:57:28;94107.75;;;11.62;73.63
3968;BME280;9221;42.646;23.380;2023-04-20T06:59:53;94207.22;;;12.11;73.81
3968;BME280;9221;42.646;23.380;2023-04-20T07:02:19;94206.44;;;12.02;74.17
3968;BME280;9221;42.646;23.380;2023-04-20T07:04:45;94236.00;;;11.97;74.68
3968;BME280;9221;42.646;23.380;2023-04-20T07:07:10;94209.41;;;11.99;74.35
3968;BME280;9221;42.646;23.380;2023-04-20T07:09:35;94170.28;;;11.61;74.95
3968;BME280;9221;42.646;23.380;2023-04-20T07:12:01;94239.47;;;11.98;75.41
3968;BME280;9221;42.646;23.380;2023-04-20T07:14:28;94046.78;;;10.74;75.37
3968;BME280;9221;42.646;23.380;2023-04-20T07:16:54;94237.47;;;12.00;75.04
3968;BME280;9221;42.646;23.380;2023-04-20T07:19:19;94255.47;;;11.88;74.52
3968;BME280;9221;42.646;23.380;2023-04-20T07:21:45;94182.03;;;11.42;75.33
3968;BME280;9221;42.646;23.380;2023-04-20T07:24:10;94244.75;;;11.98;74.90
3968;BME280;9221;42.646;23.380;2023-04-20T07:26:36;94198.50;;;12.02;75.24
3968;BME280;9221;42.646;23.380;2023-04-20T07:29:01;94208.69;;;12.22;74.54
3968;BME280;9221;42.646;23.380;2023-04-20T07:31:26;94240.91;;;12.25;74.20
3968;BME280;9221;42.646;23.380;2023-04-20T07:33:52;94194.84;;;12.11;73.99
3968;BME280;9221;42.646;23.380;2023-04-20T07:36:17;94204.41;;;12.21;74.02
3968;BME280;9221;42.646;23.380;2023-04-20T07:38:43;94233.59;;;12.27;73.85
3968;BME280;9221;42.646;23.380;2023-04-20T07:41:09;94246.63;;;12.45;73.34
3968;BME280;9221;42.646;23.380;2023-04-20T07:43:35;94175.19;;;12.14;72.60
3968;BME280;9221;42.646;23.380;2023-04-20T07:46:00;94159.19;;;12.07;72.02
3968;BME280;9221;42.646;23.380;2023-04-20T07:48:26;94203.97;;;12.48;71.70
3968;BME280;9221;42.646;23.380;2023-04-20T07:50:51;94150.19;;;12.25;71.44
3968;BME280;9221;42.646;23.380;2023-04-20T07:53:17;94161.06;;;12.30;70.95
3968;BME280;9221;42.646;23.380;2023-04-20T07:55:43;94193.22;;;12.81;71.47
3968;BME280;9221;42.646;23.380;2023-04-20T07:58:08;94144.66;;;12.74;70.16
3968;BME280;9221;42.646;23.380;2023-04-20T08:00:34;94125.91;;;12.84;69.21
3968;BME280;9221;42.646;23.380;2023-04-20T08:02:59;94123.38;;;12.91;68.94
3968;BME280;9221;42.646;23.380;2023-04-20T08:05:25;94191.63;;;13.27;68.64
3968;BME280;9221;42.646;23.380;2023-04-20T08:07:51;94234.25;;;13.40;67.85
3968;BME280;9221;42.646;23.380;2023-04-20T08:10:16;94198.94;;;13.25;68.06
3968;BME280;9221;42.646;23.380;2023-04-20T08:12:42;94129.91;;;13.03;67.73
3968;BME280;9221;42.646;23.380;2023-04-20T08:15:08;94180.31;;;13.41;66.97
3968;BME280;9221;42.646;23.380;2023-04-20T08:17:34;94154.19;;;13.07;67.52
3968;BME280;9221;42.646;23.380;2023-04-20T08:19:59;94252.75;;;13.48;66.64
3968;BME280;9221;42.646;23.380;2023-04-20T08:22:25;94199.13;;;13.84;66.20
3968;BME280;9221;42.646;23.380;2023-04-20T08:24:55;94137.13;;;13.56;65.59
3968;BME280;9221;42.646;23.380;2023-04-20T08:27:20;94195.09;;;13.88;66.22
3968;BME280;9221;42.646;23.380;2023-04-20T08:29:46;94179.94;;;13.82;66.10
3968;BME280;9221;42.646;23.380;2023-04-20T08:32:11;94134.53;;;13.47;65.74
3968;BME280;9221;42.646;23.380;2023-04-20T08:34:38;94131.56;;;13.27;66.39
3968;BME280;9221;42.646;23.380;2023-04-20T08:37:03;94226.63;;;13.45;67.60
3968;BME280;9221;42.646;23.380;2023-04-20T08:39:29;94143.84;;;12.97;67.70
3968;BME280;9221;42.646;23.380;2023-04-20T08:41:55;94202.13;;;13.43;68.00
3968;BME280;9221;42.646;23.380;2023-04-20T08:44:21;94194.44;;;13.25;67.79
3968;BME280;9221;42.646;23.380;2023-04-20T08:46:47;94212.72;;;13.43;68.14
3968;BME280;9221;42.646;23.380;2023-04-20T08:49:18;94126.47;;;12.94;68.14
3968;BME280;9221;42.646;23.380;2023-04-20T08:51:44;94137.13;;;13.09;68.06
3968;BME280;9221;42.646;23.380;2023-04-20T08:54:11;94135.25;;;13.18;67.59
3968;BME280;9221;42.646;23.380;2023-04-20T08:56:42;94140.00;;;13.23;67.34
3968;BME280;9221;42.646;23.380;2023-04-20T08:59:08;94135.03;;;13.28;66.66
3968;BME280;9221;42.646;23.380;2023-04-20T09:01:39;94206.56;;;13.89;66.12
3968;BME280;9221;42.646;23.380;2023-04-20T09:04:25;94203.25;;;13.87;66.08
3968;BME280;9221;42.646;23.380;2023-04-20T09:06:54;94147.09;;;13.53;66.01
3968;BME280;9221;42.646;23.380;2023-04-20T09:09:22;94201.16;;;13.82;65.62
3968;BME280;9221;42.646;23.380;2023-04-20T09:12:01;94136.78;;;13.59;65.37
3968;BME280;9221;42.646;23.380;2023-04-20T09:14:28;94234.94;;;13.80;65.03
3968;BME280;9221;42.646;23.380;2023-04-20T09:16:57;94200.28;;;13.67;65.48
3968;BME280;9221;42.646;23.380;2023-04-20T09:19:29;94174.59;;;13.67;65.25
3968;BME280;9221;42.646;23.380;2023-04-20T09:21:58;94133.81;;;13.39;65.43
3968;BME280;9221;42.646;23.380;2023-04-20T09:24:35;94189.19;;;13.86;65.27
3968;BME280;9221;42.646;23.380;2023-04-20T09:27:12;94226.06;;;14.11;65.00
3968;BME280;9221;42.646;23.380;2023-04-20T09:29:38;94169.91;;;14.22;63.85
3968;BME280;9221;42.646;23.380;2023-04-20T09:32:04;94116.81;;;13.86;64.12
3968;BME280;9221;42.646;23.380;2023-04-20T09:34:29;94220.59;;;14.58;63.64
3968;BME280;9221;42.646;23.380;2023-04-20T09:36:55;94133.88;;;14.28;62.94
3968;BME280;9221;42.646;23.380;2023-04-20T09:39:22;94158.66;;;14.65;62.41
3968;BME280;9221;42.646;23.380;2023-04-20T09:41:50;94169.16;;;14.74;61.76
3968;BME280;9221;42.646;23.380;2023-04-20T09:44:16;94125.06;;;14.72;61.66
3968;BME280;9221;42.646;23.380;2023-04-20T09:46:43;94193.97;;;15.17;61.60
3968;BME280;9221;42.646;23.380;2023-04-20T09:49:11;94185.34;;;15.15;60.95
3968;BME280;9221;42.646;23.380;2023-04-20T09:51:41;94226.09;;;15.44;60.31
3968;BME280;9221;42.646;23.380;2023-04-20T09:54:09;94186.03;;;15.89;59.48
3968;BME280;9221;42.646;23.380;2023-04-20T09:56:37;94173.75;;;16.16;58.49
3968;BME280;9221;42.646;23.380;2023-04-20T09:59:03;94174.75;;;16.50;57.42
3968;BME280;9221;42.646;23.380;2023-04-20T10:01:29;94156.38;;;16.55;56.76
3968;BME280;9221;42.646;23.380;2023-04-20T10:03:56;94140.47;;;16.82;55.50
3968;BME280;9221;42.646;23.380;2023-04-20T10:06:24;94209.47;;;17.19;55.11
3968;BME280;9221;42.646;23.380;2023-04-20T10:08:51;94115.28;;;16.85;55.43
3968;BME280;9221;42.646;23.380;2023-04-20T10:11:42;94171.91;;;17.00;54.52
3968;BME280;9221;42.646;23.380;2023-04-20T10:14:19;94163.19;;;16.78;55.25
3968;BME280;9221;42.646;23.380;2023-04-20T10:16:57;94159.28;;;16.74;55.78
3968;BME280;9221;42.646;23.380;2023-04-20T10:19:23;94159.13;;;16.82;55.44
3968;BME280;9221;42.646;23.380;2023-04-20T10:21:49;94110.94;;;16.64;54.40
3968;BME280;9221;42.646;23.380;2023-04-20T10:24:26;94166.59;;;17.07;54.50
3968;BME280;9221;42.646;23.380;2023-04-20T10:26:52;94050.69;;;16.01;55.29
3968;BME280;9221;42.646;23.380;2023-04-20T10:29:25;94095.69;;;16.44;55.71
3968;BME280;9221;42.646;23.380;2023-04-20T10:31:51;94190.41;;;17.15;54.97
3968;BME280;9221;42.646;23.380;2023-04-20T10:34:30;94153.97;;;17.63;53.89
3968;BME280;9221;42.646;23.380;2023-04-20T10:37:06;94184.56;;;18.20;52.36
3968;BME280;9221;42.646;23.380;2023-04-20T10:39:31;94139.03;;;18.02;51.90
3968;BME280;9221;42.646;23.380;2023-04-20T10:41:57;94159.72;;;18.13;51.66
3968;BME280;9221;42.646;23.380;2023-04-20T10:44:25;94160.75;;;18.25;51.32
3968;BME280;9221;42.646;23.380;2023-04-20T10:46:51;94158.25;;;18.44;50.63
3968;BME280;9221;42.646;23.380;2023-04-20T10:49:17;94128.97;;;17.97;50.35
3968;BME280;9221;42.646;23.380;2023-04-20T10:51:49;94113.78;;;17.71;51.39
3968;BME280;9221;42.646;23.380;2023-04-20T10:54:15;94014.94;;;17.12;51.18
3968;BME280;9221;42.646;23.380;2023-04-20T10:56:46;94029.72;;;17.48;50.84
3968;BME280;9221;42.646;23.380;2023-04-20T10:59:17;94154.50;;;18.58;51.18
3968;BME280;9221;42.646;23.380;2023-04-20T11:01:43;94098.28;;;18.85;49.64
3968;BME280;9221;42.646;23.380;2023-04-20T11:04:09;94055.63;;;18.72;48.73
3968;BME280;9221;42.646;23.380;2023-04-20T11:06:40;94091.00;;;19.38;46.14
3968;BME280;9221;42.646;23.380;2023-04-20T11:09:23;94152.91;;;20.17;46.14
3968;BME280;9221;42.646;23.380;2023-04-20T11:12:16;94139.38;;;20.74;44.78
3968;BME280;9221;42.646;23.380;2023-04-20T11:14:55;94131.81;;;21.02;43.19
3968;BME280;9221;42.646;23.380;2023-04-20T11:17:34;94079.13;;;20.95;43.28
3968;BME280;9221;42.646;23.380;2023-04-20T11:20:12;94083.28;;;21.22;41.98
3968;BME280;9221;42.646;23.380;2023-04-20T11:22:39;94121.53;;;21.59;42.38
3968;BME280;9221;42.646;23.380;2023-04-20T11:25:09;94124.97;;;21.48;41.10
3968;BME280;9221;42.646;23.380;2023-04-20T11:27:36;94136.88;;;21.10;41.02
3968;BME280;9221;42.646;23.380;2023-04-20T11:30:03;94062.78;;;20.11;43.31
3968;BME280;9221;42.646;23.380;2023-04-20T11:32:33;94130.13;;;19.89;43.84
3968;BME280;9221;42.646;23.380;2023-04-20T11:35:08;94060.09;;;18.78;46.53
3968;BME280;9221;42.646;23.380;2023-04-20T11:37:48;94136.50;;;18.92;47.60
3968;BME280;9221;42.646;23.380;2023-04-20T11:40:15;94065.28;;;18.21;48.46
3968;BME280;9221;42.646;23.380;2023-04-20T11:42:41;94151.38;;;18.68;49.02
3968;BME280;9221;42.646;23.380;2023-04-20T11:45:07;94099.09;;;18.92;48.12
3968;BME280;9221;42.646;23.380;2023-04-20T11:47:33;94075.78;;;18.68;48.20
3968;BME280;9221;42.646;23.380;2023-04-20T11:49:58;94075.00;;;18.54;48.70
3968;BME280;9221;42.646;23.380;2023-04-20T11:52:24;94064.56;;;18.46;48.23
3968;BME280;9221;42.646;23.380;2023-04-20T11:54:49;94122.56;;;18.77;48.26
3968;BME280;9221;42.646;23.380;2023-04-20T11:57:15;94066.25;;;18.40;48.19
3968;BME280;9221;42.646;23.380;2023-04-20T11:59:41;94062.66;;;18.01;48.50
3968;BME280;9221;42.646;23.380;2023-04-20T12:02:08;94112.91;;;18.17;48.94
3968;BME280;9221;42.646;23.380;2023-04-20T12:04:33;94128.94;;;18.04;48.93
3968;BME280;9221;42.646;23.380;2023-04-20T12:06:59;94146.19;;;17.81;50.13
3968;BME280;9221;42.646;23.380;2023-04-20T12:09:26;94061.69;;;17.35;50.50
3968;BME280;9221;42.646;23.380;2023-04-20T12:11:52;94037.72;;;17.21;50.24
3968;BME280;9221;42.646;23.380;2023-04-20T12:14:17;94110.50;;;17.55;50.56
3968;BME280;9221;42.646;23.380;2023-04-20T12:16:43;94043.25;;;17.27;50.29
3968;BME280;9221;42.646;23.380;2023-04-20T12:19:08;94186.81;;;17.56;50.00
3968;BME280;9221;42.646;23.380;2023-04-20T12:21:34;94090.19;;;17.28;50.37
3968;BME280;9221;42.646;23.380;2023-04-20T12:24:00;94102.69;;;17.27;50.57
3968;BME280;9221;42.646;23.380;2023-04-20T12:26:25;94047.88;;;16.71;52.23
3968;BME280;9221;42.646;23.380;2023-04-20T12:28:51;94105.81;;;16.69;53.75
3968;BME280;9221;42.646;23.380;2023-04-20T12:31:16;94042.94;;;16.13;53.94
3968;BME280;9221;42.646;23.380;2023-04-20T12:33:42;94089.28;;;16.32;54.20
3968;BME280;9221;42.646;23.380;2023-04-20T12:36:08;94105.50;;;15.95;55.43
3968;BME280;9221;42.646;23.380;2023-04-20T12:38:34;93999.06;;;15.25;55.90
3968;BME280;9221;42.646;23.380;2023-04-20T12:41:00;94132.66;;;15.90;56.67
3968;BME280;9221;42.646;23.380;2023-04-20T12:43:26;94042.50;;;15.39;56.83
3968;BME280;9221;42.646;23.380;2023-04-20T12:45:52;94059.63;;;15.30;57.60
3968;BME280;9221;42.646;23.380;2023-04-20T12:48:18;94084.41;;;15.65;57.07
3968;BME280;9221;42.646;23.380;2023-04-20T12:50:43;94070.81;;;15.53;56.94
3968;BME280;9221;42.646;23.380;2023-04-20T12:53:09;94136.78;;;15.71;56.91
3968;BME280;9221;42.646;23.380;2023-04-20T12:55:35;94100.81;;;15.47;58.25
3968;BME280;9221;42.646;23.380;2023-04-20T12:58:00;94092.94;;;15.61;58.25
3968;BME280;9221;42.646;23.380;2023-04-20T13:00:26;94029.84;;;15.41;57.40
3968;BME280;9221;42.646;23.380;2023-04-20T13:02:51;94036.50;;;15.59;57.00
3968;BME280;9221;42.646;23.380;2023-04-20T13:05:16;94098.22;;;16.11;57.02
3968;BME280;9221;42.646;23.380;2023-04-20T13:07:42;94071.78;;;16.02;57.07
3968;BME280;9221;42.646;23.380;2023-04-20T13:10:08;93987.09;;;15.71;56.56